createdAt,value
2023-03-19T00:00:42.718Z,57.31
2023-03-19T00:03:09.497Z,57.35
2023-03-19T00:05:36.448Z,57.53
2023-03-19T00:08:03.248Z,57.23
2023-03-19T00:10:30.005Z,57.33
2023-03-19T00:12:56.769Z,57.43
2023-03-19T00:15:23.538Z,57.68
2023-03-19T00:17:50.328Z,57.87
2023-03-19T00:20:18.183Z,57.74
2023-03-19T00:22:45.019Z,57.92
2023-03-19T00:25:11.776Z,57.71
2023-03-19T00:27:38.771Z,57.72
2023-03-19T00:30:07.714Z,57.72
2023-03-19T00:32:36.548Z,57.65
2023-03-19T00:35:06.209Z,57.66
2023-03-19T00:37:33.520Z,57.60
2023-03-19T00:40:00.386Z,57.80
2023-03-19T00:42:27.440Z,57.88
2023-03-19T00:44:54.248Z,57.84
2023-03-19T00:47:21.201Z,57.95
2023-03-19T00:49:48.181Z,57.80
2023-03-19T00:52:15.219Z,57.78
2023-03-19T00:54:42.003Z,57.64
2023-03-19T00:57:09.428Z,57.55
2023-03-19T00:59:36.242Z,57.89
2023-03-19T01:02:03.993Z,57.85
2023-03-19T01:04:31.072Z,57.87
2023-03-19T01:06:58.477Z,57.68
2023-03-19T01:09:25.486Z,57.58
2023-03-19T01:11:52.275Z,58.05
2023-03-19T01:14:19.085Z,57.79
2023-03-19T01:16:45.845Z,57.99
2023-03-19T01:19:14.203Z,57.77
2023-03-19T01:21:42.915Z,58.05
2023-03-19T01:24:10.624Z,57.95
2023-03-19T01:26:37.449Z,58.10
2023-03-19T01:29:04.629Z,57.75
2023-03-19T01:31:31.506Z,58.33
2023-03-19T01:33:58.312Z,58.25
2023-03-19T01:36:25.068Z,58.12
2023-03-19T01:38:52.052Z,58.31
2023-03-19T01:41:18.827Z,58.21
2023-03-19T01:43:46.109Z,58.31
2023-03-19T01:46:31.590Z,58.10
2023-03-19T01:49:06.256Z,58.20
2023-03-19T01:51:40.204Z,58.04
2023-03-19T01:54:12.367Z,58.10
2023-03-19T01:56:41.924Z,58.17
2023-03-19T01:59:21.292Z,58.17
2023-03-19T02:01:58.682Z,58.08
2023-03-19T02:04:27.281Z,58.14
2023-03-19T02:06:58.960Z,58.12
2023-03-19T02:09:27.736Z,58.22
2023-03-19T02:11:55.410Z,58.20
2023-03-19T02:14:22.775Z,58.36
2023-03-19T02:16:49.693Z,58.23
2023-03-19T02:19:31.852Z,58.03
2023-03-19T02:22:01.449Z,58.23
2023-03-19T02:24:41.742Z,58.05
2023-03-19T02:27:09.177Z,58.26
2023-03-19T02:29:36.011Z,58.34
2023-03-19T02:32:03.669Z,58.30
2023-03-19T02:34:37.625Z,58.18
2023-03-19T02:37:12.973Z,58.30
2023-03-19T02:39:59.658Z,58.25
2023-03-19T02:42:30.059Z,58.28
2023-03-19T02:44:58.060Z,58.38
2023-03-19T02:47:26.453Z,58.30
2023-03-19T02:49:53.733Z,58.27
2023-03-19T02:52:21.223Z,58.47
2023-03-19T02:54:48.468Z,58.30
2023-03-19T02:57:15.726Z,58.21
2023-03-19T02:59:42.495Z,58.30
2023-03-19T03:02:10.180Z,58.20
2023-03-19T03:04:37.244Z,58.37
2023-03-19T03:07:06.092Z,58.40
2023-03-19T03:09:33.064Z,58.32
2023-03-19T03:11:59.963Z,58.14
2023-03-19T03:14:26.916Z,58.09
2023-03-19T03:16:53.672Z,58.46
2023-03-19T03:19:21.453Z,58.18
2023-03-19T03:21:48.308Z,58.45
2023-03-19T03:24:15.351Z,58.34
2023-03-19T03:26:42.451Z,58.73
2023-03-19T03:29:09.350Z,58.63
2023-03-19T03:31:36.516Z,58.59
2023-03-19T03:34:03.532Z,58.76
2023-03-19T03:36:30.318Z,58.57
2023-03-19T03:38:57.237Z,58.45
2023-03-19T03:41:24.087Z,58.40
2023-03-19T03:43:51.033Z,58.25
2023-03-19T03:46:18.062Z,58.36
2023-03-19T03:48:44.989Z,58.37
2023-03-19T03:51:11.956Z,58.42
2023-03-19T03:53:38.734Z,58.32
2023-03-19T03:56:06.068Z,58.38
2023-03-19T03:58:33.096Z,58.42
2023-03-19T04:00:59.875Z,58.40
2023-03-19T04:03:27.087Z,58.17
2023-03-19T04:05:53.868Z,58.34
2023-03-19T04:08:20.747Z,58.59
2023-03-19T04:10:47.525Z,58.43
2023-03-19T04:13:14.390Z,58.57
2023-03-19T04:15:45.026Z,58.59
2023-03-19T04:18:11.846Z,58.97
2023-03-19T04:20:38.665Z,59.20
2023-03-19T04:23:05.464Z,59.05
2023-03-19T04:25:32.287Z,58.84
2023-03-19T04:27:59.421Z,59.08
2023-03-19T04:30:26.204Z,59.01
2023-03-19T04:32:53.465Z,58.97
2023-03-19T04:35:20.301Z,59.02
2023-03-19T04:37:48.526Z,58.79
2023-03-19T04:40:17.103Z,59.16
2023-03-19T04:42:44.619Z,59.06
2023-03-19T04:45:11.947Z,58.85
2023-03-19T04:47:38.911Z,59.11
2023-03-19T04:50:07.891Z,58.90
2023-03-19T04:52:35.037Z,58.78
2023-03-19T04:55:01.837Z,58.92
2023-03-19T04:57:28.582Z,59.08
2023-03-19T04:59:55.335Z,59.09
2023-03-19T05:02:22.104Z,58.91
2023-03-19T05:04:48.876Z,58.98
2023-03-19T05:07:15.968Z,58.94
2023-03-19T05:09:43.970Z,59.09
2023-03-19T05:12:12.273Z,58.94
2023-03-19T05:14:39.113Z,59.13
2023-03-19T05:17:06.386Z,59.08
2023-03-19T05:19:34.015Z,59.13
2023-03-19T05:22:00.865Z,59.17
2023-03-19T05:24:27.622Z,59.20
2023-03-19T05:26:54.394Z,59.30
2023-03-19T05:29:21.961Z,59.25
2023-03-19T05:31:48.761Z,59.39
2023-03-19T05:34:15.608Z,59.40
2023-03-19T05:36:42.390Z,59.26
2023-03-19T05:39:09.171Z,59.20
2023-03-19T05:41:36.438Z,59.27
2023-03-19T05:44:03.679Z,59.42
2023-03-19T05:46:30.471Z,59.76
2023-03-19T05:48:57.274Z,59.75
2023-03-19T05:51:24.034Z,59.95
2023-03-19T05:53:50.771Z,60.09
2023-03-19T05:56:18.491Z,60.05
2023-03-19T05:58:45.629Z,60.28
2023-03-19T06:01:12.507Z,60.41
2023-03-19T06:03:39.399Z,60.52
2023-03-19T06:06:06.409Z,60.65
2023-03-19T06:08:33.763Z,60.73
2023-03-19T06:11:00.598Z,60.82
2023-03-19T06:13:27.490Z,60.85
2023-03-19T06:15:54.316Z,60.97
2023-03-19T06:18:21.428Z,60.93
2023-03-19T06:20:48.405Z,61.05
2023-03-19T06:23:16.408Z,61.42
2023-03-19T06:25:44.592Z,61.29
2023-03-19T06:28:11.864Z,61.37
2023-03-19T06:30:38.625Z,61.50
2023-03-19T06:33:05.511Z,61.48
2023-03-19T06:35:32.348Z,61.56
2023-03-19T06:38:02.168Z,61.67
2023-03-19T06:40:29.177Z,61.67
2023-03-19T06:42:56.354Z,61.77
2023-03-19T06:45:23.273Z,61.91
2023-03-19T06:47:53.391Z,61.75
2023-03-19T06:50:21.459Z,61.78
2023-03-19T06:52:48.218Z,61.69
2023-03-19T06:55:15.064Z,61.82
2023-03-19T06:57:41.866Z,61.77
2023-03-19T07:00:11.526Z,61.88
2023-03-19T07:02:38.383Z,61.57
2023-03-19T07:05:05.745Z,61.98
2023-03-19T07:07:32.581Z,62.07
2023-03-19T07:09:59.336Z,62.07
2023-03-19T07:12:28.899Z,62.07
2023-03-19T07:14:56.298Z,62.11
2023-03-19T07:17:24.773Z,61.86
2023-03-19T07:19:51.927Z,62.18
2023-03-19T07:22:19.236Z,62.09
2023-03-19T07:24:46.042Z,62.35
2023-03-19T07:27:12.879Z,62.32
2023-03-19T07:29:39.745Z,62.13
2023-03-19T07:32:07.643Z,62.35
2023-03-19T07:34:34.445Z,62.45
2023-03-19T07:37:01.359Z,62.33
2023-03-19T07:39:28.192Z,62.49
2023-03-19T07:41:55.087Z,62.51
2023-03-19T07:44:21.858Z,62.76
2023-03-19T07:46:48.648Z,62.64
2023-03-19T07:49:15.918Z,62.68
2023-03-19T07:51:42.713Z,62.55
2023-03-19T07:54:09.500Z,62.61
2023-03-19T07:56:36.332Z,62.53
2023-03-19T07:59:03.107Z,62.63
2023-03-19T08:01:29.891Z,62.36
2023-03-19T08:03:56.645Z,62.45
2023-03-19T08:06:23.625Z,62.46
2023-03-19T08:08:50.495Z,62.50
2023-03-19T08:11:17.298Z,62.59
2023-03-19T08:13:44.460Z,62.66
2023-03-19T08:16:11.577Z,62.85
2023-03-19T08:18:38.353Z,62.83
2023-03-19T08:21:05.389Z,62.96
2023-03-19T08:23:32.266Z,62.80
2023-03-19T08:25:59.408Z,62.90
2023-03-19T08:28:26.270Z,62.85
2023-03-19T08:30:53.126Z,62.97
2023-03-19T08:33:19.922Z,62.69
2023-03-19T08:35:46.730Z,62.67
2023-03-19T08:38:13.548Z,62.89
2023-03-19T08:40:40.476Z,62.79
2023-03-19T08:43:07.303Z,63.07
2023-03-19T08:45:34.064Z,62.70
2023-03-19T08:48:00.823Z,62.49
2023-03-19T08:50:27.611Z,62.39
2023-03-19T08:52:54.423Z,62.48
2023-03-19T08:55:21.176Z,62.59
2023-03-19T08:57:47.998Z,62.68
2023-03-19T09:00:15.836Z,62.53
2023-03-19T09:02:42.593Z,62.82
2023-03-19T09:05:09.853Z,63.16
2023-03-19T09:07:36.727Z,63.74
2023-03-19T09:10:03.845Z,64.18
2023-03-19T09:12:30.585Z,63.85
2023-03-19T09:14:57.356Z,63.63
2023-03-19T09:17:24.145Z,63.16
2023-03-19T09:19:50.902Z,62.96
2023-03-19T09:22:17.734Z,62.93
2023-03-19T09:24:44.701Z,63.22
2023-03-19T09:27:11.553Z,63.07
2023-03-19T09:29:38.351Z,63.05
2023-03-19T09:32:06.048Z,62.85
2023-03-19T09:34:33.067Z,62.48
2023-03-19T09:36:59.870Z,62.45
2023-03-19T09:39:26.646Z,62.17
2023-03-19T09:42:38.903Z,62.02
2023-03-19T09:45:14.782Z,61.92
2023-03-19T09:47:43.645Z,61.88
2023-03-19T09:50:16.176Z,61.79
2023-03-19T09:53:21.702Z,61.64
2023-03-19T09:55:52.445Z,61.25
2023-03-19T09:58:23.142Z,60.97
2023-03-19T10:00:51.859Z,61.04
2023-03-19T10:03:31.546Z,60.96
2023-03-19T10:06:23.959Z,60.75
2023-03-19T10:09:30.496Z,60.69
2023-03-19T10:12:20.897Z,60.27
2023-03-19T10:15:02.047Z,59.28
2023-03-19T10:17:41.605Z,59.09
2023-03-19T10:20:20.359Z,58.83
2023-03-19T10:23:20.193Z,58.83
2023-03-19T10:25:47.677Z,58.34
2023-03-19T10:28:21.105Z,58.35
2023-03-19T10:31:29.346Z,58.74
2023-03-19T10:34:33.647Z,58.39
2023-03-19T10:37:14.114Z,58.25
2023-03-19T10:39:44.458Z,57.87
2023-03-19T10:42:21.310Z,57.84
2023-03-19T10:45:04.996Z,57.89
2023-03-19T10:47:39.963Z,57.48
2023-03-19T10:50:08.427Z,57.53
2023-03-19T10:52:37.356Z,57.27
2023-03-19T10:55:36.926Z,57.21
2023-03-19T10:58:16.175Z,57.17
2023-03-19T11:00:47.776Z,57.37
2023-03-19T11:03:31.704Z,56.76
2023-03-19T11:06:27.969Z,56.69
2023-03-19T11:09:13.491Z,56.08
2023-03-19T11:11:53.566Z,55.91
2023-03-19T11:14:36.325Z,55.99
2023-03-19T11:17:33.780Z,55.55
2023-03-19T11:20:22.419Z,55.36
2023-03-19T11:22:50.586Z,54.98
2023-03-19T11:25:38.370Z,54.63
2023-03-19T11:28:23.119Z,54.72
2023-03-19T11:31:15.870Z,54.32
2023-03-19T11:34:01.535Z,54.19
2023-03-19T11:37:08.077Z,54.61
2023-03-19T11:40:14.415Z,54.55
2023-03-19T11:43:38.700Z,54.53
2023-03-19T11:46:36.728Z,54.31
2023-03-19T11:49:31.655Z,54.20
2023-03-19T11:52:12.119Z,53.79
2023-03-19T11:54:50.460Z,53.73
2023-03-19T11:57:57.696Z,53.56
2023-03-19T12:00:52.225Z,53.62
2023-03-19T12:03:58.393Z,53.81
2023-03-19T12:06:35.273Z,53.21
2023-03-19T12:09:28.587Z,53.24
2023-03-19T12:12:26.820Z,53.38
2023-03-19T12:15:23.808Z,53.38
2023-03-19T12:18:16.377Z,53.17
2023-03-19T12:20:59.402Z,53.32
2023-03-19T12:24:06.489Z,53.43
2023-03-19T12:27:04.202Z,52.97
2023-03-19T12:29:46.032Z,52.76
2023-03-19T12:33:03.526Z,52.90
2023-03-19T12:35:35.672Z,52.79
2023-03-19T12:38:41.499Z,52.84
2023-03-19T12:41:23.352Z,52.06
2023-03-19T12:44:11.876Z,51.63
2023-03-19T12:47:04.359Z,51.05
2023-03-19T12:49:42.764Z,51.03
2023-03-19T12:52:25.038Z,50.77
2023-03-19T12:55:20.646Z,50.96
2023-03-19T12:57:49.455Z,50.72
2023-03-19T13:00:37.836Z,50.36
2023-03-19T13:03:15.412Z,50.04
2023-03-19T13:05:48.232Z,49.81
2023-03-19T13:08:39.237Z,49.81
2023-03-19T13:11:35.278Z,49.30
2023-03-19T13:14:18.001Z,48.46
2023-03-19T13:16:57.688Z,48.96
2023-03-19T13:19:45.287Z,48.63
2023-03-19T13:22:18.438Z,48.53
2023-03-19T13:24:47.980Z,48.06
2023-03-19T13:27:22.754Z,48.06
2023-03-19T13:30:18.243Z,47.77
2023-03-19T13:32:51.752Z,46.99
2023-03-19T13:35:44.448Z,47.10
2023-03-19T13:38:15.217Z,46.52
2023-03-19T13:40:48.512Z,46.39
2023-03-19T13:43:42.986Z,46.50
2023-03-19T13:46:12.717Z,46.52
2023-03-19T13:48:53.603Z,46.22
2023-03-19T13:51:20.415Z,46.11
2023-03-19T13:54:01.080Z,45.99
2023-03-19T13:56:30.601Z,45.90
2023-03-19T13:59:26.781Z,46.45
2023-03-19T14:01:54.042Z,46.31
2023-03-19T14:04:30.740Z,46.67
2023-03-19T14:07:21.553Z,46.65
2023-03-19T14:10:04.726Z,46.94
2023-03-19T14:12:41.425Z,46.80
2023-03-19T14:15:11.719Z,47.03
2023-03-19T14:17:43.504Z,47.06
2023-03-19T14:20:14.550Z,47.36
2023-03-19T14:23:11.373Z,47.48
2023-03-19T14:26:05.353Z,47.29
2023-03-19T14:28:47.788Z,47.66
2023-03-19T14:31:42.766Z,47.90
2023-03-19T14:34:27.774Z,49.74
2023-03-19T14:37:16.102Z,48.54
2023-03-19T14:39:45.432Z,48.29
2023-03-19T14:42:39.639Z,48.55
2023-03-19T14:45:35.022Z,48.64
2023-03-19T14:48:26.084Z,48.15
2023-03-19T14:51:48.451Z,48.91
2023-03-19T14:54:56.864Z,49.16
2023-03-19T14:57:34.606Z,48.63
2023-03-19T15:00:06.715Z,48.87
2023-03-19T15:02:37.192Z,48.26
2023-03-19T15:05:25.891Z,48.05
2023-03-19T15:08:02.607Z,48.43
2023-03-19T15:10:52.889Z,47.93
2023-03-19T15:13:53.968Z,48.31
2023-03-19T15:17:28.955Z,48.65
2023-03-19T15:20:00.435Z,48.57
2023-03-19T15:22:33.792Z,48.20
2023-03-19T15:25:15.182Z,48.31
2023-03-19T15:27:42.676Z,48.05
2023-03-19T15:30:30.478Z,48.17
2023-03-19T15:33:10.583Z,48.39
2023-03-19T15:35:39.314Z,48.14
2023-03-19T15:38:12.015Z,47.59
2023-03-19T15:40:41.691Z,47.51
2023-03-19T15:43:11.942Z,47.70
2023-03-19T15:45:40.468Z,47.65
2023-03-19T15:48:19.769Z,47.86
2023-03-19T15:50:51.178Z,47.76
2023-03-19T15:53:28.194Z,48.10
2023-03-19T15:55:55.683Z,48.43
2023-03-19T15:58:32.811Z,48.01
2023-03-19T16:01:01.245Z,48.13
2023-03-19T16:03:39.069Z,48.38
2023-03-19T16:06:13.716Z,48.21
2023-03-19T16:08:50.713Z,48.48
2023-03-19T16:11:37.989Z,48.44
2023-03-19T16:14:14.117Z,48.60
2023-03-19T16:16:42.830Z,48.57
2023-03-19T16:19:47.732Z,48.48
2023-03-19T16:22:28.692Z,49.03
2023-03-19T16:24:56.119Z,48.71
2023-03-19T16:27:44.416Z,49.06
2023-03-19T16:30:21.676Z,49.08
2023-03-19T16:33:03.202Z,49.02
2023-03-19T16:35:33.612Z,49.12
2023-03-19T16:38:24.609Z,49.14
2023-03-19T16:41:19.041Z,49.24
2023-03-19T16:43:47.368Z,49.29
2023-03-19T16:46:16.519Z,49.11
2023-03-19T16:48:43.691Z,49.23
2023-03-19T16:51:18.517Z,48.92
2023-03-19T16:53:46.493Z,48.95
2023-03-19T16:56:15.441Z,48.98
2023-03-19T16:58:44.870Z,49.04
2023-03-19T17:01:21.672Z,49.16
2023-03-19T17:03:49.693Z,49.12
2023-03-19T17:06:17.710Z,49.31
2023-03-19T17:08:45.588Z,49.24
2023-03-19T17:11:36.784Z,49.41
2023-03-19T17:14:05.467Z,49.49
2023-03-19T17:16:32.565Z,49.49
2023-03-19T17:18:59.374Z,49.60
2023-03-19T17:21:33.250Z,49.31
2023-03-19T17:24:19.078Z,49.81
2023-03-19T17:26:45.860Z,49.78
2023-03-19T17:29:12.619Z,49.67
2023-03-19T17:31:39.614Z,49.50
2023-03-19T17:34:20.962Z,49.78
2023-03-19T17:36:55.997Z,49.63
2023-03-19T17:39:23.925Z,49.83
2023-03-19T17:41:52.097Z,50.04
2023-03-19T17:44:18.889Z,50.18
2023-03-19T17:46:54.277Z,50.18
2023-03-19T17:49:31.746Z,50.30
2023-03-19T17:51:59.456Z,50.42
2023-03-19T17:54:27.178Z,50.51
2023-03-19T17:56:55.250Z,50.40
2023-03-19T17:59:22.798Z,50.64
2023-03-19T18:01:49.788Z,50.39
2023-03-19T18:04:19.730Z,50.71
2023-03-19T18:06:50.528Z,50.67
2023-03-19T18:09:21.834Z,50.84
2023-03-19T18:11:48.684Z,50.71
2023-03-19T18:14:15.585Z,50.57
2023-03-19T18:16:43.023Z,50.71
2023-03-19T18:19:44.331Z,50.92
2023-03-19T18:22:17.465Z,50.78
2023-03-19T18:24:44.587Z,51.03
2023-03-19T18:27:11.512Z,51.14
2023-03-19T18:29:38.341Z,51.48
2023-03-19T18:32:12.812Z,51.49
2023-03-19T18:34:39.706Z,51.53
2023-03-19T18:37:06.549Z,51.63
2023-03-19T18:39:37.924Z,51.81
2023-03-19T18:42:04.683Z,51.72
2023-03-19T18:44:31.642Z,51.82
2023-03-19T18:46:58.432Z,51.78
2023-03-19T18:49:27.192Z,51.86
2023-03-19T18:52:02.573Z,51.80
2023-03-19T18:54:31.834Z,52.27
2023-03-19T18:57:02.296Z,52.17
2023-03-19T18:59:32.704Z,52.01
2023-03-19T19:02:22.003Z,52.14
2023-03-19T19:04:49.008Z,52.17
2023-03-19T19:07:16.658Z,52.29
2023-03-19T19:09:43.583Z,52.29
2023-03-19T19:12:18.707Z,52.32
2023-03-19T19:14:46.023Z,52.21
2023-03-19T19:17:19.090Z,52.26
2023-03-19T19:19:46.107Z,52.57
2023-03-19T19:22:17.806Z,52.63
2023-03-19T19:24:45.248Z,52.53
2023-03-19T19:27:26.036Z,52.71
2023-03-19T19:29:53.316Z,52.55
2023-03-19T19:32:26.993Z,52.70
2023-03-19T19:34:54.373Z,52.85
2023-03-19T19:37:23.342Z,52.84
2023-03-19T19:39:51.113Z,52.63
2023-03-19T19:42:20.734Z,52.71
2023-03-19T19:44:53.536Z,52.77
2023-03-19T19:47:20.322Z,52.66
2023-03-19T19:49:47.099Z,52.81
2023-03-19T19:52:17.153Z,52.84
2023-03-19T19:54:45.544Z,52.62
2023-03-19T19:57:24.512Z,52.90
2023-03-19T19:59:52.602Z,53.03
2023-03-19T20:02:26.407Z,53.01
2023-03-19T20:04:53.688Z,52.95
2023-03-19T20:07:20.582Z,52.96
2023-03-19T20:09:48.230Z,52.89
2023-03-19T20:12:24.007Z,52.97
2023-03-19T20:14:51.978Z,52.96
2023-03-19T20:17:20.957Z,53.09
2023-03-19T20:19:48.389Z,53.16
2023-03-19T20:22:15.175Z,53.28
2023-03-19T20:24:42.362Z,53.29
2023-03-19T20:27:22.412Z,53.28
2023-03-19T20:29:50.584Z,53.36
2023-03-19T20:32:36.597Z,53.37
2023-03-19T20:35:07.680Z,53.55
2023-03-19T20:37:34.458Z,53.48
2023-03-19T20:40:01.238Z,53.71
2023-03-19T20:42:30.222Z,53.45
2023-03-19T20:44:59.573Z,53.70
2023-03-19T20:47:26.412Z,53.54
2023-03-19T20:49:53.215Z,53.70
2023-03-19T20:52:20.966Z,53.61
2023-03-19T20:54:48.248Z,53.56
2023-03-19T20:57:30.642Z,53.70
2023-03-19T21:00:03.538Z,53.70
2023-03-19T21:02:30.366Z,53.77
2023-03-19T21:04:57.369Z,53.69
2023-03-19T21:07:34.395Z,53.89
2023-03-19T21:10:05.528Z,53.83
2023-03-19T21:12:33.915Z,53.55
2023-03-19T21:15:01.187Z,53.98
2023-03-19T21:17:28.870Z,54.07
2023-03-19T21:19:56.789Z,53.99
2023-03-19T21:22:29.199Z,53.95
2023-03-19T21:25:06.346Z,53.90
2023-03-19T21:27:36.299Z,54.21
2023-03-19T21:30:05.841Z,54.29
2023-03-19T21:32:32.871Z,54.30
2023-03-19T21:34:59.752Z,54.15
2023-03-19T21:37:26.528Z,54.29
2023-03-19T21:39:53.283Z,54.50
2023-03-19T21:42:23.397Z,54.42
2023-03-19T21:44:57.404Z,54.60
2023-03-19T21:47:25.632Z,54.56
2023-03-19T21:49:52.444Z,54.52
2023-03-19T21:52:21.636Z,54.72
2023-03-19T21:54:49.014Z,54.69
2023-03-19T21:57:17.288Z,54.45
2023-03-19T21:59:47.769Z,54.46
2023-03-19T22:02:43.321Z,54.75
2023-03-19T22:05:22.925Z,54.70
2023-03-19T22:07:50.034Z,54.62
2023-03-19T22:10:18.081Z,54.75
2023-03-19T22:12:45.679Z,54.78
2023-03-19T22:15:29.984Z,54.69
2023-03-19T22:17:58.307Z,54.79
2023-03-19T22:20:26.255Z,54.83
2023-03-19T22:22:53.049Z,54.91
2023-03-19T22:25:22.126Z,55.05
2023-03-19T22:27:50.533Z,54.89
2023-03-19T22:30:27.674Z,54.96
2023-03-19T22:32:57.184Z,55.24
2023-03-19T22:35:24.658Z,55.22
2023-03-19T22:37:51.439Z,55.31
2023-03-19T22:40:19.194Z,55.34
2023-03-19T22:42:49.288Z,55.51
2023-03-19T22:45:28.072Z,55.36
2023-03-19T22:47:57.089Z,55.39
2023-03-19T22:50:31.811Z,55.79
2023-03-19T22:52:59.166Z,55.45
2023-03-19T22:55:25.974Z,55.84
2023-03-19T22:57:52.718Z,55.96
2023-03-19T23:00:23.557Z,55.69
2023-03-19T23:02:57.322Z,55.73
2023-03-19T23:05:35.834Z,56.08
2023-03-19T23:08:06.380Z,56.07
2023-03-19T23:10:33.506Z,56.21
2023-03-19T23:13:00.301Z,56.40
2023-03-19T23:15:30.791Z,56.35
2023-03-19T23:17:59.566Z,56.42
2023-03-19T23:20:28.855Z,56.40
2023-03-19T23:22:56.404Z,56.53
2023-03-19T23:25:27.352Z,56.39
2023-03-19T23:28:01.535Z,56.74
2023-03-19T23:30:31.571Z,56.78
2023-03-19T23:33:01.907Z,56.71
2023-03-19T23:35:30.643Z,56.78
2023-03-19T23:37:57.980Z,56.84
2023-03-19T23:40:29.926Z,56.76
2023-03-19T23:42:58.096Z,56.89
2023-03-19T23:45:36.853Z,57.05
2023-03-19T23:48:46.772Z,57.12
2023-03-19T23:51:15.293Z,57.23
2023-03-19T23:53:43.008Z,57.45
2023-03-19T23:56:20.577Z,57.33
2023-03-19T23:58:50.471Z,57.40
